Latest Weather Observations for Casterton

IDV60801

Issued at 2:02 am EDT Saturday 10 December 2016 (issued every 30 minutes, with the page automatically refreshed every 10 minutes)

About weather observations | Map of weather stations | Latest weather observations for VIC | Other Formats
Station Details ID: 090182 Name: CASTERTON Lat: -37.58 Lon: 141.33 Height: 130.6 m
Data from the previous 72 hours. | See also: Recent months at Casterton
Date/Time
EDT
Temp
°C
App
Temp
°C
Dew
Point
°C
Rel
Hum
%
Delta-T
°C
Wind Press
QNH
hPa
Press
MSL
hPa
Rain since
9am
mm
Dir  Spd
km/h
Gust
km/h
Spd
kts
Gust
kts
10/02:00am 10.5 10.3 8.9 90 0.8 CALM 0 0 0 0 1022.9 1022.6 0.0
10/01:30am 10.6 10.3 8.7 88 0.9 CALM 0 0 0 0 1023.0 1022.7 0.0
10/01:00am 10.9 10.6 8.7 86 1.1 CALM 0 0 0 0 1023.2 1022.9 0.0
10/12:30am 10.9 9.2 8.3 84 1.3 S 7 9 4 5 1023.3 1023.0 0.0
10/12:00am 10.9 9.3 7.8 81 1.5 SSW 6 9 3 5 1023.3 1023.0 0.0
 
Date/Time
EDT
Temp
°C
App
Temp
°C
Dew
Point
°C
Rel
Hum
%
Delta-T
°C
Wind Press
QNH
hPa
Press
MSL
hPa
Rain since
9am
mm
Dir  Spd
km/h
Gust
km/h
Spd
kts
Gust
kts
09/11:30pm 10.8 9.6 8.2 84 1.3 SSW 4 9 2 5 1023.4 1023.1 0.0
09/11:00pm 10.6 9.0 8.2 85 1.2 SSW 6 7 3 4 1023.4 1023.1 0.0
09/10:30pm 11.0 9.3 8.2 83 1.4 S 7 9 4 5 1023.4 1023.1 0.0
09/10:00pm 11.3 9.6 8.2 81 1.5 SSW 7 9 4 5 1023.3 1023.0 0.0
09/09:30pm 11.3 9.5 8.0 80 1.6 SSW 7 11 4 6 1023.2 1022.9 0.0
09/09:00pm 11.6 9.3 7.3 75 2.1 SSW 9 13 5 7 1022.9 1022.6 0.0
09/08:30pm 12.1 9.1 6.2 67 2.8 SSW 11 15 6 8 1022.8 1022.5 0.0
09/08:00pm 12.5 10.2 7.4 71 2.5 SSW 9 15 5 8 1022.6 1022.3 0.0
09/07:30pm 12.6 9.6 7.5 71 2.5 SSW 13 20 7 11 1022.4 1022.1 0.0
09/07:00pm 12.9 10.0 8.0 72 2.4 SSW 13 22 7 12 1022.1 1021.8 0.0
09/06:30pm 13.2 9.0 7.4 68 2.8 SSW 19 26 10 14 1021.6 1021.3 0.0
09/06:00pm 13.7 9.4 7.2 65 3.2 SSW 19 26 10 14 1021.4 1021.1 0.0
09/05:30pm 13.2 8.9 7.2 67 2.9 SW 19 26 10 14 1021.5 1021.2 0.0
09/05:00pm 13.9 10.4 7.0 63 3.4 SW 15 22 8 12 1021.4 1021.1 0.0
09/04:30pm 13.0 8.5 7.0 67 2.9 SSW 20 26 11 14 1021.5 1021.2 0.0
09/04:00pm 14.0 10.2 7.5 65 3.2 SW 17 24 9 13 1021.4 1021.1 0.0
09/03:30pm 13.8 9.3 7.1 64 3.3 SW 20 28 11 15 1021.3 1021.0 0.0
09/03:00pm 14.9 10.7 7.5 61 3.7 SSW 19 28 10 15 1021.2 1020.9 0.0
09/02:30pm 14.5 10.4 6.3 58 4.0 SSW 17 24 9 13 1021.0 1020.7 0.0
09/02:00pm 13.8 9.5 7.1 64 3.3 SSW 19 30 10 16 1021.1 1020.8 0.0
09/01:30pm 13.4 9.5 7.2 66 3.0 WSW 17 20 9 11 1021.1 1020.8 0.0
09/01:00pm 13.2 10.1 7.4 68 2.8 SW 13 20 7 11 1021.1 1020.8 0.0
09/12:30pm 13.2 9.0 8.1 71 2.5 WSW 20 26 11 14 1021.0 1020.7 0.0
09/12:00pm 13.4 9.6 7.4 67 2.9 WSW 17 24 9 13 1020.7 1020.4 0.0
09/11:30am 13.8 9.4 6.7 62 3.5 SW 19 24 10 13 1020.5 1020.2 0.0
09/11:00am 12.3 7.2 6.1 66 2.9 SW 22 30 12 16 1020.4 1020.1 0.0
09/10:30am 12.5 8.4 6.3 66 3.0 SW 17 30 9 16 1020.0 1019.7 0.0
09/10:00am 12.0 7.5 6.3 68 2.7 SSW 19 26 10 14 1019.6 1019.4 0.0
09/09:30am 12.1 8.8 8.0 76 2.0 SW 15 20 8 11 1019.4 1019.2 0.0
09/09:00am 10.8 8.3 8.0 83 1.4 WSW 11 17 6 9 1019.0 1018.8 5.4
09/08:30am 10.4 7.5 8.0 85 1.2 WSW 13 20 7 11 1018.3 1018.1 5.4
09/08:00am 10.2 8.0 8.0 86 1.1 WSW 9 15 5 8 1017.6 1017.4 5.4
09/07:30am 10.2 7.7 8.3 88 0.9 WSW 11 15 6 8 1017.3 1017.1 5.4
09/07:00am 9.3 7.2 8.1 92 0.6 WSW 9 13 5 7 1016.7 1016.4 5.4
09/06:30am 8.6 5.6 7.5 93 0.5 WSW 13 17 7 9 1016.2 1015.9 5.4
09/06:00am 8.2 6.2 7.3 94 0.4 SW 7 9 4 5 1015.8 1015.5 5.2
09/05:30am 8.0 5.7 7.6 97 0.2 WSW 9 13 5 7 1015.2 1014.9 5.2
09/05:00am 7.0 5.1 6.7 98 0.1 W 6 9 3 5 1014.8 1014.5 5.2
09/04:30am 7.4 5.5 6.8 96 0.3 W 6 7 3 4 1014.4 1014.1 5.0
09/04:00am 8.2 5.9 7.6 96 0.3 WSW 9 11 5 6 1014.2 1013.9 5.0
09/03:30am 8.0 5.4 7.7 98 0.1 W 11 15 6 8 1013.9 1013.6 5.0
09/03:00am 7.5 5.5 6.9 96 0.3 WSW 7 9 4 5 1013.6 1013.3 5.0
09/02:30am 7.9 5.6 7.3 96 0.3 WSW 9 13 5 7 1013.5 1013.2 5.0
09/02:00am 8.3 5.6 7.5 95 0.4 WSW 11 15 6 8 1013.4 1013.1 5.0
09/01:30am 8.9 6.0 8.1 95 0.4 W 13 19 7 10 1013.4 1013.1 5.0
09/01:00am 8.9 5.6 8.1 95 0.4 WSW 15 19 8 10 1013.4 1013.1 4.8
09/12:30am 8.6 5.6 7.8 95 0.4 WSW 13 20 7 11 1013.1 1012.8 4.8
09/12:00am 8.9 5.5 7.8 93 0.5 W 15 20 8 11 1012.8 1012.5 4.8
 
Date/Time
EDT
Temp
°C
App
Temp
°C
Dew
Point
°C
Rel
Hum
%
Delta-T
°C
Wind Press
QNH
hPa
Press
MSL
hPa
Rain since
9am
mm
Dir  Spd
km/h
Gust
km/h
Spd
kts
Gust
kts
08/11:30pm 9.2 6.3 8.3 94 0.4 WSW 13 20 7 11 1012.6 1012.3 4.8
08/11:00pm 9.5 4.9 8.1 91 0.7 WSW 22 30 12 16 1012.5 1012.2 4.8
08/10:30pm 9.9 6.4 8.8 93 0.5 WSW 17 24 9 13 1012.0 1011.7 4.4
08/10:00pm 10.2 6.4 9.1 93 0.5 SW 19 28 10 15 1011.4 1011.2 4.4
08/09:30pm 10.9 6.8 8.5 85 1.2 WSW 20 28 11 15 1010.7 1010.5 3.6
08/09:00pm 11.2 7.0 8.1 81 1.5 WSW 20 33 11 18 1010.1 1009.8 3.4
08/08:30pm 11.3 5.5 8.0 80 1.6 WSW 28 39 15 21 1009.4 1009.1 3.4
08/08:00pm 11.5 5.7 8.0 79 1.7 WSW 28 39 15 21 1008.8 1008.5 3.4
08/07:30pm 11.8 6.1 8.5 80 1.6 WSW 28 43 15 23 1008.2 1007.9 3.4
08/07:00pm 11.4 5.9 9.0 85 1.2 WSW 28 43 15 23 1007.6 1007.3 3.4
08/06:37pm 11.3 6.0 9.9 91 0.7 SW 28 50 15 27 1006.9 1006.6 3.4
08/06:30pm 11.1 5.8 10.0 93 0.6 SW 28 41 15 22 1006.8 1006.5 3.4
08/06:09pm 11.8 6.6 10.2 90 0.8 SW 28 46 15 25 1006.2 1005.9 2.6
08/06:00pm 12.3 8.1 11.2 93 0.6 SW 24 35 13 19 1006.1 1005.8 2.6
08/05:37pm 12.3 6.3 10.2 87 1.1 SW 32 59 17 32 1005.7 1005.4 2.0
08/05:30pm 12.9 8.7 11.1 89 1.0 WSW 24 44 13 24 1005.4 1005.1 2.0
08/05:01pm 13.5 7.3 10.1 80 1.8 SW 33 56 18 30 1004.9 1004.6 1.8
08/05:00pm 13.7 7.5 10.1 79 1.9 SW 33 50 18 27 1004.8 1004.5 1.8
08/04:30pm 14.8 8.2 11.2 79 1.9 WSW 37 59 20 32 1004.1 1003.8 1.8
08/04:12pm 13.7 8.6 11.8 88 1.0 WSW 30 48 16 26 1003.8 1003.5 1.8
08/04:00pm 13.4 8.2 11.6 89 1.0 WSW 30 44 16 24 1003.7 1003.4 1.8
08/03:32pm 14.9 8.1 10.7 76 2.2 W 37 69 20 37 1003.0 1002.7 1.4
08/03:30pm 15.2 8.1 11.0 76 2.2 W 39 56 21 30 1002.8 1002.5 1.4
08/03:00pm 14.0 7.7 11.0 82 1.6 WSW 35 61 19 33 1002.9 1002.6 1.4
08/02:37pm 15.0 8.4 11.4 79 1.9 W 37 59 20 32 1002.4 1002.1 1.2
08/02:30pm 14.4 8.3 11.6 83 1.5 W 35 52 19 28 1002.4 1002.1 1.2
08/02:17pm 14.7 6.9 9.7 72 2.6 W 41 76 22 41 1002.3 1002.0 1.0
08/02:00pm 14.1 6.8 10.1 77 2.1 W 39 57 21 31 1002.0 1001.7 0.8
08/01:37pm 15.7 8.4 10.2 70 2.9 WNW 39 57 21 31 1001.9 1001.6 0.8
08/01:30pm 15.8 8.6 10.6 71 2.8 W 39 52 21 28 1001.8 1001.5 0.8
08/01:00pm 13.6 6.6 11.1 85 1.3 W 39 59 21 32 1001.9 1001.6 0.8
08/12:30pm 15.8 7.7 10.1 69 3.0 W 43 61 23 33 1001.1 1000.8 0.6
08/12:01pm 14.0 6.2 9.8 76 2.2 W 41 61 22 33 1001.0 1000.7 0.6
08/12:00pm 14.0 6.3 10.0 77 2.1 W 41 61 22 33 1001.0 1000.7 0.6
08/11:30am 12.3 4.3 10.4 88 1.0 W 43 70 23 38 1001.2 1000.9 0.4
08/11:00am 15.5 7.7 8.3 62 3.7 W 39 57 21 31 1000.2 999.9 0.0
08/10:30am 15.7 7.5 8.0 60 3.9 W 41 63 22 34 999.9 999.6 0.0
08/10:00am 15.1 6.7 9.7 70 2.8 W 44 65 24 35 999.8 999.5 0.0
08/09:30am 14.3 7.6 9.7 74 2.4 WNW 35 54 19 29 999.4 999.1 0.0
08/09:22am 15.0 8.3 9.6 70 2.8 WNW 35 54 19 29 999.3 999.0 0.0
08/09:00am 14.4 7.6 9.2 71 2.7 WNW 35 50 19 27 999.3 999.0 10.0
08/08:30am 14.0 8.6 9.6 75 2.3 WNW 28 54 15 29 999.1 998.8 10.0
08/08:05am 13.6 8.2 9.6 77 2.1 WNW 28 46 15 25 998.9 998.6 10.0
08/08:00am 13.7 8.0 9.7 77 2.1 WNW 30 44 16 24 998.8 998.5 10.0
08/07:30am 13.0 6.6 9.4 79 1.8 WNW 33 52 18 28 998.4 998.1 10.0
08/07:00am 13.0 6.9 10.4 84 1.4 WNW 33 52 18 28 997.9 997.6 10.0
08/06:30am 13.1 7.3 11.5 90 0.9 WNW 33 54 18 29 997.4 997.1 10.0
08/06:00am 14.7 7.1 13.6 93 0.6 WNW 46 89 25 48 996.5 996.1 9.8
08/05:52am 16.2 9.3 14.0 87 1.3 WNW 43 89 23 48 995.8 995.5 9.8
08/05:36am 17.4 12.6 15.6 89 1.1 WNW 35 54 19 29 995.1 994.8 9.6
08/05:30am 17.4 13.4 16.1 92 0.8 WNW 32 48 17 26 995.0 994.7 9.6
08/05:16am 17.5 14.5 16.9 96 0.4 NW 28 50 15 27 994.6 994.3 9.6
08/05:00am 17.1 14.4 16.6 97 0.3 NW 26 39 14 21 994.8 994.5 9.0
08/04:48am 17.1 14.0 16.5 96 0.4 N 28 46 15 25 994.2 993.9 7.0
08/04:30am 17.0 13.5 16.4 96 0.4 N 30 43 16 23 994.3 994.0 6.4
08/04:03am 17.1 13.1 16.3 95 0.5 NNW 32 50 17 27 995.3 995.0 5.4
08/04:00am 17.1 13.1 16.1 94 0.6 NNW 32 46 17 25 995.3 995.0 5.2
08/03:30am 18.4 13.0 14.9 80 2.0 N 37 57 20 31 995.7 995.4 2.6
08/03:00am 19.5 15.5 14.1 71 3.2 N 28 46 15 25 996.1 995.7 2.0
08/02:59am 19.7 15.7 14.1 70 3.3 NNW 28 46 15 25 996.1 995.7 2.0
08/02:30am 20.9 17.0 13.4 62 4.3 N 26 44 14 24 995.1 994.8 1.8
08/02:00am 21.0 16.7 13.2 61 4.5 N 28 43 15 23 995.4 995.1 1.8
08/01:30am 20.1 16.7 13.8 67 3.6 NNE 24 35 13 19 996.7 996.3 1.8
08/01:00am 19.5 16.2 14.1 71 3.2 N 24 33 13 18 998.0 997.7 1.8
08/12:30am 20.1 16.4 14.0 68 3.5 N 26 50 14 27 999.1 998.8 1.0
08/12:28am 20.2 16.9 13.9 67 3.7 N 24 50 13 27 999.3 999.0 1.0
08/12:27am 20.5 17.2 13.9 66 3.8 N 24 50 13 27 999.4 999.1 1.0
08/12:00am 18.8 18.8 15.1 79 2.2 N 9 15 5 8 999.3 999.0 0.8
 
Date/Time
EDT
Temp
°C
App
Temp
°C
Dew
Point
°C
Rel
Hum
%
Delta-T
°C
Wind Press
QNH
hPa
Press
MSL
hPa
Rain since
9am
mm
Dir  Spd
km/h
Gust
km/h
Spd
kts
Gust
kts
07/11:30pm 19.7 19.9 14.1 70 3.3 N 6 13 3 7 1000.6 1000.3 0.0
07/11:00pm 19.8 19.2 13.5 67 3.6 ENE 9 13 5 7 1000.4 1000.1 0.0
07/10:30pm 19.5 19.0 12.8 65 3.8 ENE 7 9 4 5 1001.3 1001.0 0.0
07/10:00pm 20.7 20.0 13.2 62 4.3 NNE 9 13 5 7 1002.3 1002.0 0.0
07/09:30pm 22.3 21.6 12.0 52 5.8 N 7 9 4 5 1002.8 1002.5 0.0
07/09:00pm 23.1 21.6 11.8 49 6.4 NNW 11 17 6 9 1003.1 1002.8 0.0
07/08:30pm 24.0 20.9 11.7 46 7.0 NNW 19 28 10 15 1004.3 1004.0 0.0
07/08:00pm 23.6 22.2 11.0 45 7.1 NNE 9 11 5 6 1004.1 1003.8 0.0
07/07:30pm 25.0 23.1 8.9 36 8.8 NNE 9 11 5 6 1004.0 1003.7 0.0
07/07:00pm 25.3 23.2 9.6 37 8.7 N 11 15 6 8 1004.7 1004.4 0.0
07/06:30pm 25.0 21.2 7.6 33 9.3 NNW 17 24 9 13 1005.4 1005.1 0.0
07/06:00pm 24.9 20.6 7.1 32 9.4 N 19 28 10 15 1005.9 1005.6 0.0
07/05:30pm 25.7 21.7 6.8 30 9.9 N 17 28 9 15 1006.7 1006.4 0.0
07/05:00pm 25.3 20.9 6.5 30 9.8 N 19 24 10 13 1007.5 1007.2 0.0
07/04:30pm 24.2 19.2 4.6 28 9.8 NNW 20 32 11 17 1008.2 1007.9 0.0
07/04:00pm 24.6 19.3 4.9 28 10.0 NNW 22 32 12 17 1008.7 1008.4 0.0
07/03:30pm 24.4 19.4 4.7 28 9.9 N 20 33 11 18 1009.3 1009.0 0.0
07/03:00pm 24.8 19.7 6.1 30 9.7 NNW 22 35 12 19 1010.1 1009.8 0.0
07/02:30pm 23.9 19.8 6.2 32 9.1 NNW 17 32 9 17 1010.6 1010.4 0.0
07/02:00pm 23.4 19.8 6.7 34 8.7 N 15 24 8 13 1011.0 1010.8 0.0
07/01:30pm 23.2 20.3 9.6 42 7.4 NNW 15 22 8 12 1012.0 1011.7 0.0
07/01:00pm 21.3 17.6 6.4 38 7.6 N 15 24 8 13 1012.7 1012.4 0.0
07/12:30pm 20.4 17.1 6.4 40 7.1 N 13 20 7 11 1013.1 1012.8 0.0
07/12:00pm 19.7 15.7 6.8 43 6.5 N 17 24 9 13 1013.5 1013.2 0.0
07/11:30am 19.1 16.3 8.7 51 5.5 NNE 13 28 7 15 1013.9 1013.6 0.0
07/11:00am 18.6 16.3 7.4 48 5.7 NNE 9 15 5 8 1014.2 1013.9 0.0
07/10:30am 17.6 15.1 6.5 48 5.5 NE 9 17 5 9 1014.3 1014.0 0.0
07/10:00am 16.8 15.3 9.0 60 4.1 NNE 7 11 4 6 1014.6 1014.3 0.0
07/09:30am 16.0 14.7 11.2 73 2.6 ENE 9 15 5 8 1014.7 1014.4 0.0
07/09:00am 14.0 12.4 10.2 78 2.0 ENE 9 11 5 6 1014.7 1014.4 0.0
07/08:30am 12.2 10.9 10.1 87 1.1 ENE 7 9 4 5 1014.9 1014.6 0.0
07/08:00am 10.1 8.8 9.3 95 0.4 ENE 6 7 3 4 1014.8 1014.5 0.0
07/07:30am 8.7 7.1 8.6 99 0.0 NE 7 9 4 5 1014.5 1014.2 0.0
07/07:00am 7.3 5.5 7.2 99 0.0 ENE 6 7 3 4 1014.5 1014.2 0.0
07/06:30am 5.7 4.7 5.6 99 0.0 CALM 0 0 0 0 1014.5 1014.2 0.0
07/06:00am 6.3 5.0 6.2 99 0.0 ENE 2 6 1 3 1014.5 1014.2 0.0
07/05:30am 5.9 3.6 5.8 99 0.0 ENE 7 7 4 4 1014.4 1014.1 0.0
07/05:00am 5.8 3.1 5.7 99 0.0 NE 9 11 5 6 1014.4 1014.1 0.0
07/04:30am 5.4 4.3 5.3 99 0.0 CALM 0 0 0 0 1014.4 1014.1 0.0
07/04:00am 6.8 6.0 6.7 99 0.0 CALM 0 0 0 0 1014.4 1014.1 0.0
07/03:30am 6.6 5.8 6.5 99 0.0 CALM 0 0 0 0 1014.5 1014.2 0.0
07/03:00am 6.4 5.5 6.1 98 0.1 CALM 0 0 0 0 1014.6 1014.3 0.0
07/02:30am 7.5 6.9 7.2 98 0.1 CALM 0 0 0 0 1014.8 1014.5 0.0

Other Formats:

Comma delimited format used in spreadsheet applications
http://www.bom.gov.au/fwo/IDV60801/IDV60801.95825.axf

JavaScript Object Notation format (JSON) in row-major order
http://www.bom.gov.au/fwo/IDV60801/IDV60801.95825.json